Time;durP1;ratioP1;P1;durP2;ratioP2;P2;SDS_P1;SDS_P2;PMS_P1;PMS_P2;Temp;Humidity;BMP_temperature;BMP_pressure;BME280_temperature;BME280_humidity;BME280_pressure;Samples;Min_cycle;Max_cycle;Signal;HPM_P1;HPM_P2
2022/03/25 00:01:54;;;;;;;28.27;16.00;;;6.40;90.20;;;;;;10081204;29;20214;-78
2022/03/25 00:07:16;;;;;;;25.30;15.17;;;6.30;90.80;;;;;;10082325;29;20213;-77
2022/03/25 00:12:39;;;;;;;32.33;16.63;;;6.30;91.20;;;;;;10065219;29;20253;-78
2022/03/25 00:18:00;;;;;;;23.53;14.67;;;6.20;91.70;;;;;;10086373;29;20205;-77
2022/03/25 00:23:23;;;;;;;27.10;16.03;;;6.10;92.00;;;;;;10082361;29;20220;-78
2022/03/25 00:28:44;;;;;;;29.30;16.63;;;6.10;92.30;;;;;;10108743;29;20508;-78
2022/03/25 00:34:07;;;;;;;30.33;17.17;;;6.10;92.80;;;;;;10102842;29;20257;-77
2022/03/25 00:39:30;;;;;;;27.73;15.03;;;6.10;92.90;;;;;;10103075;29;20218;-77
2022/03/25 00:44:53;;;;;;;26.37;15.10;;;6.10;92.90;;;;;;10119587;29;20243;-78
2022/03/25 00:50:16;;;;;;;26.87;14.83;;;6.00;93.00;;;;;;10104064;29;20264;-79
2022/03/25 00:55:41;;;;;;;30.80;18.33;;;6.00;93.70;;;;;;10105797;29;20244;-78
2022/03/25 01:01:03;;;;;;;32.90;19.37;;;6.00;94.00;;;;;;10105581;29;20499;-78
2022/03/25 01:06:25;;;;;;;35.93;19.97;;;5.90;94.50;;;;;;10104518;29;20563;-79
2022/03/25 01:11:47;;;;;;;32.17;20.77;;;5.90;95.10;;;;;;10104624;29;20215;-78
2022/03/25 01:17:09;;;;;;;33.33;20.67;;;5.80;95.50;;;;;;10088681;29;20237;-77
2022/03/25 01:22:31;;;;;;;40.30;22.37;;;5.70;96.10;;;;;;10104490;29;20233;-79
2022/03/25 01:27:52;;;;;;;41.03;22.50;;;5.50;97.10;;;;;;10117466;29;20276;-78
2022/03/25 01:33:15;;;;;;;45.97;25.23;;;5.40;98.20;;;;;;10101574;29;20263;-77
2022/03/25 01:38:37;;;;;;;42.67;23.73;;;5.20;99.50;;;;;;10091088;29;20541;-77
2022/03/25 01:44:00;;;;;;;40.97;21.70;;;5.10;99.90;;;;;;10118060;29;20210;-78
2022/03/25 01:49:23;;;;;;;37.60;20.53;;;5.00;99.90;;;;;;10116283;29;20204;-78
2022/03/25 01:54:46;;;;;;;36.97;20.67;;;5.00;99.90;;;;;;10101014;29;20244;-78
2022/03/25 02:00:09;;;;;;;33.30;19.63;;;5.00;99.90;;;;;;10116666;29;20429;-78
2022/03/25 02:05:41;;;;;;;32.67;19.30;;;5.00;99.90;;;;;;10116495;29;20215;-80
2022/03/25 02:11:03;;;;;;;35.63;20.93;;;;;;;;;;10103411;29;20429;-77
2022/03/25 02:16:47;;;;;;;39.93;22.03;;;4.70;99.90;;;;;;10116592;29;20247;-77
2022/03/25 02:22:12;;;;;;;37.73;21.10;;;4.70;99.90;;;;;;10107643;29;20219;-78
2022/03/25 02:27:36;;;;;;;32.67;19.67;;;4.70;99.90;;;;;;10089762;29;20215;-78
2022/03/25 02:33:02;;;;;;;28.37;17.80;;;4.80;99.90;;;;;;10110141;29;20238;-79
2022/03/25 02:38:24;;;;;;;32.50;19.03;;;5.00;99.90;;;;;;10109607;29;20254;-78
2022/03/25 02:43:48;;;;;;;33.57;19.23;;;5.00;99.90;;;;;;10110081;29;20223;-77
2022/03/25 02:49:11;;;;;;;32.77;19.80;;;5.10;99.90;;;;;;10113293;29;20215;-78
2022/03/25 02:54:33;;;;;;;34.67;19.57;;;5.10;99.90;;;;;;10084916;29;20237;-77
2022/03/25 02:59:56;;;;;;;35.03;19.40;;;5.10;99.90;;;;;;10085040;29;20209;-78
2022/03/25 03:05:23;;;;;;;32.23;18.63;;;5.00;99.90;;;;;;10083425;29;20291;-77
2022/03/25 03:10:46;;;;;;;34.03;19.50;;;5.00;99.90;;;;;;10056363;29;20285;-79
2022/03/25 03:16:11;;;;;;;35.53;20.20;;;5.00;99.90;;;;;;10108829;29;20304;-79
2022/03/25 03:21:33;;;;;;;37.67;21.40;;;4.90;99.90;;;;;;10116964;29;20209;-77
2022/03/25 03:26:55;;;;;;;34.47;20.97;;;4.80;99.90;;;;;;10108614;29;20213;-78
2022/03/25 03:32:18;;;;;;;35.07;21.40;;;4.60;99.90;;;;;;10115010;29;20208;-78
2022/03/25 03:37:45;;;;;;;37.93;21.80;;;4.50;99.90;;;;;;10128021;29;20260;-77
2022/03/25 03:43:07;;;;;;;32.27;21.43;;;4.40;99.90;;;;;;10086726;29;20213;-77
2022/03/25 03:48:30;;;;;;;43.60;23.53;;;4.40;99.90;;;;;;10031563;29;20229;-79
2022/03/25 03:53:52;;;;;;;39.40;23.67;;;4.40;99.90;;;;;;10028150;29;20583;-79
2022/03/25 03:59:14;;;;;;;42.20;24.37;;;4.30;99.90;;;;;;10044606;29;20205;-79
2022/03/25 04:04:36;;;;;;;42.37;24.33;;;4.30;99.90;;;;;;10042969;29;20505;-77
2022/03/25 04:09:58;;;;;;;43.10;25.10;;;4.20;99.90;;;;;;10043002;29;20219;-79
2022/03/25 04:15:20;;;;;;;42.00;25.23;;;4.20;99.90;;;;;;10065156;29;20288;-79
2022/03/25 04:20:42;;;;;;;46.67;24.93;;;4.20;99.90;;;;;;10065346;29;20213;-77
2022/03/25 04:26:05;;;;;;;41.50;25.23;;;4.40;99.90;;;;;;10081416;29;20226;-76
2022/03/25 04:31:26;;;;;;;47.90;26.37;;;4.40;99.90;;;;;;10080463;29;20245;-77
2022/03/25 04:36:49;;;;;;;72.63;40.10;;;;;;;;;;10109588;29;20258;-78
2022/03/25 04:42:12;;;;;;;77.30;40.53;;;3.60;99.90;;;;;;10071998;29;20233;-78
2022/03/25 04:47:34;;;;;;;54.33;30.47;;;3.40;99.90;;;;;;10081020;29;20310;-79
2022/03/25 04:52:56;;;;;;;45.73;26.23;;;3.30;99.90;;;;;;10079532;29;20506;-78
2022/03/25 04:58:18;;;;;;;45.83;26.17;;;3.20;99.90;;;;;;10080011;29;20505;-78
2022/03/25 05:03:40;;;;;;;50.13;28.00;;;3.10;99.90;;;;;;10080248;29;20218;-79
2022/03/25 05:09:02;;;;;;;58.53;27.53;;;3.20;99.90;;;;;;10066541;29;20286;-80
2022/03/25 05:14:25;;;;;;;67.43;31.13;;;3.20;99.90;;;;;;10076404;29;20294;-78
2022/03/25 05:19:47;;;;;;;68.87;35.43;;;3.20;99.90;;;;;;10117370;29;20213;-78
2022/03/25 05:25:10;;;;;;;81.80;38.27;;;3.30;99.90;;;;;;10117158;29;20218;-77
2022/03/25 05:30:33;;;;;;;82.00;37.20;;;3.30;99.90;;;;;;10063148;29;20267;-78
2022/03/25 05:35:55;;;;;;;103.50;45.67;;;3.40;99.90;;;;;;10103483;29;20262;-77
2022/03/25 05:41:16;;;;;;;101.77;48.83;;;3.50;99.90;;;;;;10118104;29;20200;-77
2022/03/25 05:46:39;;;;;;;95.47;46.77;;;3.60;99.90;;;;;;10117772;29;20246;-77
2022/03/25 05:52:01;;;;;;;95.07;47.00;;;3.80;99.90;;;;;;10119162;29;20206;-79
2022/03/25 05:57:23;;;;;;;97.47;48.03;;;4.00;99.90;;;;;;10108848;29;20246;-79
2022/03/25 06:02:45;;;;;;;98.87;46.77;;;4.20;99.90;;;;;;10095650;29;20215;-79
2022/03/25 06:08:07;;;;;;;84.00;44.03;;;4.50;99.90;;;;;;10124205;29;20295;-78
2022/03/25 06:13:30;;;;;;;72.07;40.43;;;4.70;99.90;;;;;;10098989;29;20234;-78
2022/03/25 06:18:52;;;;;;;65.60;38.00;;;5.10;99.90;;;;;;10092278;29;20222;-77
2022/03/25 06:24:16;;;;;;;63.43;35.03;;;5.60;99.90;;;;;;10124477;29;20213;-78
2022/03/25 06:29:38;;;;;;;63.60;35.23;;;6.00;99.90;;;;;;10123074;29;20356;-77
2022/03/25 06:35:00;;;;;;;64.87;36.33;;;6.40;99.90;;;;;;10093950;29;20626;-78
2022/03/25 06:40:24;;;;;;;68.77;37.30;;;6.70;99.90;;;;;;10130751;29;20218;-77
2022/03/25 06:45:47;;;;;;;76.03;39.50;;;6.90;99.90;;;;;;10107161;29;20286;-80
2022/03/25 06:51:09;;;;;;;66.67;38.63;;;7.20;99.90;;;;;;10123571;29;20279;-78
2022/03/25 06:56:35;;;;;;;66.77;34.83;;;7.40;99.90;;;;;;10123387;29;20269;-78
2022/03/25 07:01:57;;;;;;;62.60;35.37;;;7.90;99.90;;;;;;10122688;29;20514;-78
2022/03/25 07:07:26;;;;;;;54.67;31.57;;;8.90;99.90;;;;;;10114839;29;20213;-79
2022/03/25 07:12:48;;;;;;;57.25;32.78;;;;;;;;;;10120787;29;20208;-78
2022/03/25 07:18:10;;;;;;;57.38;32.47;;;12.10;91.60;;;;;;10073854;29;20213;-79
2022/03/25 07:23:32;;;;;;;46.17;29.45;;;13.20;81.20;;;;;;10122610;29;20209;-78
2022/03/25 07:28:55;;;;;;;45.63;27.83;;;;;;;;;;10120672;29;20213;-79
2022/03/25 07:34:17;;;;;;;52.15;31.50;;;15.50;51.40;;;;;;10107328;29;20309;-79
2022/03/25 07:39:39;;;;;;;57.53;33.70;;;16.40;44.60;;;;;;10104717;29;20224;-78
2022/03/25 07:45:01;;;;;;;44.80;28.15;;;16.80;40.70;;;;;;10108170;29;20277;-79
2022/03/25 07:50:24;;;;;;;44.97;30.33;;;17.10;38.50;;;;;;10120258;29;20212;-79
2022/03/25 07:55:50;;;;;;;41.80;28.17;;;17.60;35.10;;;;;;10091670;29;20265;-79
2022/03/25 08:01:12;;;;;;;38.30;25.08;;;17.60;33.70;;;;;;10121140;29;20206;-84
2022/03/25 08:06:34;;;;;;;41.65;25.85;;;18.20;31.80;;;;;;10110950;29;20304;-80
2022/03/25 08:11:56;;;;;;;40.38;26.27;;;18.80;29.30;;;;;;10119978;29;20206;-78
2022/03/25 08:17:18;;;;;;;47.13;27.40;;;19.40;28.00;;;;;;10124944;29;20241;-78
2022/03/25 08:22:40;;;;;;;46.95;30.50;;;19.70;27.00;;;;;;10121895;29;20440;-78
2022/03/25 08:28:03;;;;;;;41.47;26.08;;;19.70;26.90;;;;;;10109780;29;20206;-79
2022/03/25 08:33:25;;;;;;;49.83;29.13;;;20.00;26.50;;;;;;10080391;29;20469;-78
2022/03/25 08:38:48;;;;;;;42.53;24.98;;;19.90;26.10;;;;;;10065695;29;20544;-79
2022/03/25 08:44:10;;;;;;;46.13;26.73;;;20.00;25.60;;;;;;10025110;29;20218;-79
2022/03/25 08:49:33;;;;;;;47.53;26.58;;;20.10;25.20;;;;;;10051587;29;20214;-79
2022/03/25 08:54:56;;;;;;;39.83;22.23;;;20.20;25.30;;;;;;10051079;29;20250;-82
2022/03/25 09:00:19;;;;;;;37.58;20.20;;;20.60;24.50;;;;;;10074468;29;20524;-78
2022/03/25 09:05:42;;;;;;;34.25;19.05;;;21.50;23.50;;;;;;10076214;29;20215;-77
2022/03/25 09:11:04;;;;;;;24.52;14.77;;;21.60;21.30;;;;;;10049941;29;20206;-78
2022/03/25 09:16:26;;;;;;;21.40;14.25;;;21.20;21.30;;;;;;10074728;29;20238;-80
2022/03/25 09:21:48;;;;;;;30.35;16.33;;;21.20;21.00;;;;;;10059858;29;20207;-80
2022/03/25 09:27:11;;;;;;;25.80;15.05;;;21.10;20.70;;;;;;10070536;29;20518;-79
2022/03/25 09:32:33;;;;;;;28.15;17.67;;;21.30;20.60;;;;;;10055611;29;20277;-80
2022/03/25 09:37:55;;;;;;;28.58;15.43;;;21.40;20.40;;;;;;10126318;29;20437;-80
2022/03/25 09:43:20;;;;;;;25.90;15.82;;;21.50;20.40;;;;;;10104230;29;20210;-79
2022/03/25 09:48:42;;;;;;;30.02;16.58;;;21.30;20.30;;;;;;10112882;29;20285;-79
2022/03/25 09:54:17;;;;;;;29.48;15.65;;;21.70;20.20;;;;;;10111616;29;20285;-80
2022/03/25 09:59:39;;;;;;;32.55;16.85;;;21.80;20.50;;;;;;10097311;29;20241;-79
2022/03/25 10:05:16;;;;;;;29.52;15.88;;;21.70;20.30;;;;;;10112542;29;20225;-80
2022/03/25 10:10:39;;;;;;;24.85;16.10;;;21.90;20.50;;;;;;10082345;29;20696;-78
2022/03/25 10:16:27;;;;;;;26.02;16.48;;;22.10;20.50;;;;;;10080388;29;20253;-83
2022/03/25 10:21:55;;;;;;;33.30;16.60;;;22.40;20.20;;;;;;10141740;29;20213;-80
2022/03/25 10:27:30;;;;;;;23.05;15.73;;;23.00;19.80;;;;;;10110070;29;20520;-80
2022/03/25 10:32:52;;;;;;;25.10;17.05;;;23.20;19.40;;;;;;10111573;29;20218;-80
2022/03/25 10:38:14;;;;;;;58.15;19.90;;;23.40;19.20;;;;;;10138256;29;20259;-80
2022/03/25 10:43:49;;;;;;;23.70;17.05;;;23.60;19.20;;;;;;10104100;29;20234;-79
2022/03/25 10:49:14;;;;;;;34.63;17.27;;;23.50;19.40;;;;;;10110036;29;20211;-79
2022/03/25 10:54:36;;;;;;;28.50;18.15;;;23.50;19.40;;;;;;10078484;29;20246;-80
2022/03/25 10:59:59;;;;;;;32.20;18.48;;;23.80;19.10;;;;;;10066112;29;20221;-79
2022/03/25 11:05:25;;;;;;;30.38;17.35;;;23.60;19.50;;;;;;10117173;29;20228;-78
2022/03/25 11:10:48;;;;;;;24.42;16.40;;;23.40;19.60;;;;;;10139402;29;20221;-81
2022/03/25 11:16:17;;;;;;;30.92;16.13;;;23.80;19.50;;;;;;10113634;29;20245;-80
2022/03/25 11:21:42;;;;;;;26.58;14.38;;;23.80;19.60;;;;;;10112100;29;20427;-80
2022/03/25 11:27:25;;;;;;;33.67;16.75;;;23.80;19.60;;;;;;10093801;29;20300;-80
2022/03/25 11:32:49;;;;;;;35.08;20.35;;;24.10;19.40;;;;;;10115798;29;20209;-80
2022/03/25 11:38:13;;;;;;;26.15;18.85;;;23.90;19.50;;;;;;10115598;29;20257;-80
2022/03/25 11:43:35;;;;;;;29.05;16.83;;;23.90;19.60;;;;;;10116717;29;20209;-79
2022/03/25 11:49:17;;;;;;;30.38;15.48;;;24.10;19.20;;;;;;10117103;29;20397;-84
2022/03/25 11:54:41;;;;;;;24.30;14.57;;;24.10;19.20;;;;;;10111949;29;20242;-83
2022/03/25 12:00:08;;;;;;;28.05;15.90;;;23.80;20.00;;;;;;10096329;29;20212;-80
2022/03/25 12:05:32;;;;;;;25.17;15.80;;;23.60;19.90;;;;;;10122073;29;20217;-80
2022/03/25 12:10:55;;;;;;;31.90;16.95;;;23.60;20.10;;;;;;10126931;29;20237;-81
2022/03/25 12:16:53;;;;;;;35.40;17.63;;;23.90;20.00;;;;;;10089066;29;20241;-81
2022/03/25 12:22:22;;;;;;;20.88;14.13;;;23.90;20.00;;;;;;9921402;29;20316;-81
2022/03/25 12:27:44;;;;;;;21.60;15.68;;;24.20;19.90;;;;;;9933417;29;20287;-80
2022/03/25 12:33:08;;;;;;;33.53;17.83;;;24.20;19.80;;;;;;9929414;29;20248;-78
2022/03/25 12:38:30;;;;;;;30.10;16.75;;;23.80;19.80;;;;;;9903625;29;20272;-79
2022/03/25 12:43:59;;;;;;;18.38;12.00;;;23.40;19.90;;;;;;9906524;30;20217;-83
2022/03/25 12:49:22;;;;;;;25.70;13.93;;;23.60;19.70;;;;;;9918538;30;20219;-80
2022/03/25 12:54:44;;;;;;;24.73;13.38;;;23.30;19.70;;;;;;10046733;29;20436;-78
2022/03/25 13:00:10;;;;;;;18.25;10.95;;;23.20;19.60;;;;;;10101088;29;20272;-79
2022/03/25 13:05:32;;;;;;;24.48;11.73;;;22.80;19.80;;;;;;10162827;29;20273;-79
2022/03/25 13:10:58;;;;;;;20.67;11.25;;;22.70;20.10;;;;;;10153371;29;20209;-80
2022/03/25 13:16:24;;;;;;;18.67;10.30;;;23.00;19.90;;;;;;10123763;29;20249;-76
2022/03/25 13:21:47;;;;;;;22.73;12.30;;;22.80;19.50;;;;;;10134058;29;20218;-78
2022/03/25 13:27:09;;;;;;;22.13;11.82;;;22.30;20.40;;;;;;10139013;29;20209;-77
2022/03/25 13:32:36;;;;;;;19.98;11.02;;;22.00;21.10;;;;;;10138140;29;20244;-83
2022/03/25 13:37:59;;;;;;;16.83;10.13;;;22.00;20.90;;;;;;10107260;29;20285;-80
2022/03/25 13:43:35;;;;;;;23.50;10.80;;;21.40;21.50;;;;;;10112938;29;20212;-79
2022/03/25 13:49:00;;;;;;;25.50;12.38;;;21.30;22.00;;;;;;10112609;29;20399;-80
2022/03/25 13:54:28;;;;;;;23.65;12.98;;;21.30;22.20;;;;;;10138972;29;20765;-78
2022/03/25 13:59:50;;;;;;;34.22;14.52;;;21.00;22.30;;;;;;10115354;29;20245;-79
2022/03/25 14:05:14;;;;;;;27.40;14.07;;;20.50;22.80;;;;;;10132679;29;20241;-79
2022/03/25 14:10:59;;;;;;;17.85;11.48;;;20.20;23.40;;;;;;10123804;29;20462;-78
2022/03/25 14:16:21;;;;;;;19.83;11.30;;;19.80;23.30;;;;;;10108219;29;20316;-80
2022/03/25 14:21:43;;;;;;;22.13;13.82;;;19.60;23.50;;;;;;10148310;29;20241;-81
2022/03/25 14:27:11;;;;;;;20.40;11.27;;;19.30;24.00;;;;;;10108593;29;20221;-79
2022/03/25 14:32:33;;;;;;;22.90;12.43;;;18.80;24.50;;;;;;10127391;29;20210;-82
2022/03/25 14:37:56;;;;;;;22.35;11.27;;;18.40;25.00;;;;;;10119867;29;20276;-79
2022/03/25 14:43:18;;;;;;;15.75;10.68;;;18.20;25.40;;;;;;10139474;29;20293;-77
2022/03/25 14:48:40;;;;;;;15.23;9.75;;;17.90;25.60;;;;;;10147495;29;20225;-78
2022/03/25 14:54:24;;;;;;;22.60;13.10;;;17.80;26.00;;;;;;10143273;29;20210;-78
2022/03/25 14:59:49;;;;;;;23.30;11.50;;;17.60;25.90;;;;;;10119414;29;20534;-78
2022/03/25 15:05:12;;;;;;;19.80;10.68;;;17.50;25.60;;;;;;10143864;29;20216;-78
2022/03/25 15:10:34;;;;;;;17.67;10.75;;;17.30;25.60;;;;;;10070599;29;20225;-90
2022/03/25 15:15:57;;;;;;;22.63;10.38;;;17.10;26.10;;;;;;10096205;29;20326;-79
2022/03/25 15:21:19;;;;;;;18.50;8.90;;;17.10;26.50;;;;;;10078939;29;20210;-88
2022/03/25 15:26:42;;;;;;;18.38;9.40;;;17.10;26.60;;;;;;10086703;29;20301;-78
2022/03/25 15:37:45;;;;;;;16.13;9.82;;;17.00;25.60;;;;;;10043088;29;20245;-79
2022/03/25 15:43:08;;;;;;;19.60;10.43;;;16.70;26.10;;;;;;10042202;29;20278;-79
2022/03/25 15:48:30;;;;;;;16.17;9.50;;;16.60;27.10;;;;;;10043312;29;20217;-81
2022/03/25 15:53:52;;;;;;;19.35;11.68;;;16.40;28.40;;;;;;10096747;29;20482;-83
2022/03/25 15:59:15;;;;;;;21.73;12.48;;;16.20;29.10;;;;;;10068198;29;20569;-78
2022/03/25 16:04:37;;;;;;;68.85;12.63;;;16.10;29.80;;;;;;10111099;29;20436;-79
2022/03/25 16:09:59;;;;;;;17.98;11.35;;;15.80;29.90;;;;;;10073832;29;20451;-77
2022/03/25 16:15:21;;;;;;;18.83;9.38;;;15.60;30.30;;;;;;10080089;29;20238;-76
2022/03/25 16:20:43;;;;;;;17.13;9.35;;;15.40;31.20;;;;;;10081083;29;20213;-76
2022/03/25 16:26:06;;;;;;;16.90;9.52;;;15.30;32.50;;;;;;10078782;29;20230;-76
2022/03/25 16:31:28;;;;;;;19.15;10.48;;;15.20;34.50;;;;;;10077392;29;20221;-79
2022/03/25 16:36:50;;;;;;;27.83;10.93;;;15.00;37.00;;;;;;10078599;29;20244;-78
2022/03/25 16:42:12;;;;;;;27.98;10.82;;;14.90;37.50;;;;;;10078447;29;20215;-78
2022/03/25 16:47:33;;;;;;;17.90;11.00;;;14.70;38.20;;;;;;10080549;29;20212;-77
2022/03/25 16:52:55;;;;;;;21.25;10.00;;;14.50;40.30;;;;;;10052639;29;20208;-76
2022/03/25 16:58:17;;;;;;;19.67;9.00;;;14.40;42.20;;;;;;10061934;29;20420;-77
2022/03/25 17:03:48;;;;;;;19.55;9.70;;;14.10;45.10;;;;;;10081904;29;20217;-77
2022/03/25 17:09:10;;;;;;;17.80;8.40;;;14.00;48.50;;;;;;10064710;29;20484;-76
2022/03/25 17:14:32;;;;;;;17.30;8.90;;;13.90;51.00;;;;;;10080619;29;20205;-76
2022/03/25 17:19:54;;;;;;;16.77;8.07;;;13.80;53.80;;;;;;10082524;29;20397;-75
2022/03/25 17:25:16;;;;;;;12.88;8.20;;;13.70;57.10;;;;;;10084627;29;20215;-76
2022/03/25 17:30:38;;;;;;;14.80;10.05;;;13.60;60.30;;;;;;10041297;29;20218;-76
2022/03/25 17:36:00;;;;;;;15.40;9.68;;;13.50;63.60;;;;;;10080062;29;20247;-77
2022/03/25 17:41:22;;;;;;;20.42;10.65;;;13.40;68.60;;;;;;10082351;29;20212;-76
2022/03/25 17:46:44;;;;;;;16.73;10.13;;;13.30;73.40;;;;;;10086865;29;20209;-77
2022/03/25 17:52:07;;;;;;;21.60;10.77;;;13.10;77.70;;;;;;10071818;29;20427;-77
2022/03/25 17:57:29;;;;;;;15.70;10.98;;;13.00;81.90;;;;;;10034142;29;20322;-77
2022/03/25 18:02:51;;;;;;;25.98;12.50;;;12.80;85.40;;;;;;10054717;29;20214;-78
2022/03/25 18:08:16;;;;;;;26.00;13.20;;;12.70;87.90;;;;;;10070303;29;20237;-79
2022/03/25 18:13:39;;;;;;;26.42;13.95;;;12.60;90.00;;;;;;10086700;29;20229;-79
2022/03/25 18:19:04;;;;;;;30.42;16.10;;;12.50;91.20;;;;;;10098340;29;20287;-81
2022/03/25 18:24:41;;;;;;;39.03;17.23;;;12.30;92.20;;;;;;10112886;29;20216;-82
2022/03/25 18:30:05;;;;;;;41.90;18.52;;;12.20;93.70;;;;;;10086200;29;20211;-79
2022/03/25 18:35:27;;;;;;;33.17;16.95;;;12.10;94.80;;;;;;10082932;29;20254;-78
2022/03/25 18:40:49;;;;;;;38.55;18.35;;;12.00;95.60;;;;;;10086152;29;20212;-79
2022/03/25 18:46:12;;;;;;;32.10;17.48;;;11.90;96.40;;;;;;10085757;29;20263;-79
2022/03/25 18:51:34;;;;;;;39.63;19.35;;;11.80;97.20;;;;;;10085194;29;20422;-78
2022/03/25 18:57:02;;;;;;;38.25;19.38;;;11.70;97.80;;;;;;10068872;29;20269;-76
2022/03/25 19:02:25;;;;;;;35.22;18.80;;;11.70;98.40;;;;;;10082675;29;20214;-77
2022/03/25 19:07:48;;;;;;;34.95;17.48;;;11.50;99.10;;;;;;10084083;29;20520;-77
2022/03/25 19:13:10;;;;;;;34.35;18.05;;;11.50;99.50;;;;;;10068164;29;20252;-78
2022/03/25 19:18:33;;;;;;;36.67;21.08;;;11.40;99.80;;;;;;10076011;29;20242;-77
2022/03/25 19:23:55;;;;;;;38.53;21.50;;;11.30;99.90;;;;;;10115515;29;20223;-77
2022/03/25 19:29:17;;;;;;;45.40;24.47;;;11.20;99.90;;;;;;10082446;29;20301;-77
2022/03/25 19:34:39;;;;;;;42.27;23.13;;;11.00;99.90;;;;;;10082973;29;20267;-77
2022/03/25 19:40:04;;;;;;;47.03;24.63;;;10.90;99.90;;;;;;10083817;29;20215;-77
2022/03/25 19:45:27;;;;;;;37.77;21.63;;;10.80;99.90;;;;;;10083624;29;20214;-77
2022/03/25 19:50:49;;;;;;;44.57;23.43;;;10.70;99.90;;;;;;10083152;29;20217;-76
2022/03/25 19:56:12;;;;;;;45.73;23.17;;;10.70;99.90;;;;;;10081910;29;20253;-76
2022/03/25 20:01:35;;;;;;;37.83;22.20;;;10.60;99.90;;;;;;10057605;29;20230;-77
2022/03/25 20:06:59;;;;;;;43.13;21.80;;;10.60;99.90;;;;;;10033700;29;20293;-77
2022/03/25 20:12:21;;;;;;;44.93;22.60;;;10.50;99.90;;;;;;10082252;29;20215;-78
2022/03/25 20:17:43;;;;;;;40.70;20.37;;;10.40;99.90;;;;;;10084176;29;20232;-77
2022/03/25 20:23:06;;;;;;;37.53;20.90;;;10.50;99.90;;;;;;10118800;29;20293;-78
2022/03/25 20:28:28;;;;;;;45.67;22.77;;;10.40;99.90;;;;;;10052822;29;20235;-77
2022/03/25 20:33:51;;;;;;;37.30;21.05;;;10.40;99.90;;;;;;10064859;29;20214;-78
2022/03/25 20:39:13;;;;;;;42.60;22.77;;;10.30;99.90;;;;;;10065027;29;20435;-78
2022/03/25 20:44:35;;;;;;;43.93;23.10;;;10.30;99.90;;;;;;10080548;29;20211;-79
2022/03/25 20:49:57;;;;;;;45.73;23.10;;;10.20;99.90;;;;;;10081322;29;20209;-77
2022/03/25 20:55:25;;;;;;;42.50;21.57;;;10.10;99.90;;;;;;10074419;29;20340;-77
2022/03/25 21:00:56;;;;;;;38.93;22.43;;;10.20;99.90;;;;;;10042522;29;20214;-76
2022/03/25 21:06:18;;;;;;;39.07;22.73;;;10.10;99.90;;;;;;10042977;29;20213;-78
2022/03/25 21:11:40;;;;;;;41.10;23.13;;;10.10;99.90;;;;;;10063986;29;20214;-77
2022/03/25 21:17:02;;;;;;;40.70;22.83;;;10.00;99.90;;;;;;10080312;29;20234;-79
2022/03/25 21:22:24;;;;;;;41.63;22.13;;;10.00;99.90;;;;;;10117453;29;20274;-76
2022/03/25 21:27:46;;;;;;;44.70;21.93;;;9.90;99.90;;;;;;10090904;29;20251;-80
2022/03/25 21:33:14;;;;;;;39.03;20.97;;;9.90;99.90;;;;;;10087524;29;20210;-79
2022/03/25 21:38:36;;;;;;;39.13;21.27;;;9.90;99.90;;;;;;10084065;29;20242;-79
2022/03/25 21:43:58;;;;;;;41.67;21.00;;;10.00;99.90;;;;;;10071242;29;20207;-80
2022/03/25 21:49:20;;;;;;;34.30;20.07;;;10.00;99.90;;;;;;10084509;29;20259;-77
2022/03/25 21:54:43;;;;;;;31.47;18.83;;;10.00;99.90;;;;;;10081205;29;20604;-77
2022/03/25 22:00:07;;;;;;;29.43;17.37;;;10.00;99.90;;;;;;10046685;29;20255;-78
2022/03/25 22:05:34;;;;;;;30.00;17.53;;;10.00;99.90;;;;;;10054458;29;20209;-76
2022/03/25 22:10:56;;;;;;;36.10;18.10;;;10.00;99.90;;;;;;10084889;29;20478;-77
2022/03/25 22:16:19;;;;;;;31.60;17.77;;;10.00;99.90;;;;;;10085305;29;20246;-77
2022/03/25 22:21:43;;;;;;;32.33;18.90;;;9.90;99.90;;;;;;10117749;29;20213;-80
2022/03/25 22:27:05;;;;;;;62.47;35.03;;;9.90;99.90;;;;;;10092031;29;20214;-76
2022/03/25 22:32:29;;;;;;;51.30;31.43;;;10.00;99.90;;;;;;10070060;29;20248;-81
2022/03/25 22:37:52;;;;;;;32.47;19.50;;;9.90;99.90;;;;;;10105638;29;20246;-76
2022/03/25 22:43:15;;;;;;;32.87;18.47;;;9.80;99.90;;;;;;10103374;29;20210;-80
2022/03/25 22:48:37;;;;;;;85.00;56.67;;;9.80;99.90;;;;;;10078033;29;20217;-77
2022/03/25 22:53:59;;;;;;;49.70;32.10;;;9.70;99.90;;;;;;10089930;29;20217;-80
2022/03/25 22:59:24;;;;;;;43.07;27.60;;;9.70;99.90;;;;;;10088672;29;20273;-79
2022/03/25 23:04:46;;;;;;;42.73;22.17;;;9.70;99.90;;;;;;10071546;29;20213;-76
2022/03/25 23:10:09;;;;;;;32.77;20.73;;;9.50;99.90;;;;;;10078807;29;20415;-78
2022/03/25 23:15:32;;;;;;;39.17;19.73;;;9.60;99.90;;;;;;10084650;29;20228;-77
2022/03/25 23:20:54;;;;;;;36.10;20.33;;;9.50;99.90;;;;;;10094243;29;20219;-76
2022/03/25 23:26:18;;;;;;;70.27;42.30;;;9.40;99.90;;;;;;10097588;29;20217;-77
2022/03/25 23:31:40;;;;;;;59.40;37.57;;;9.40;99.90;;;;;;10082791;29;20571;-82
2022/03/25 23:37:02;;;;;;;45.47;28.93;;;9.30;99.90;;;;;;10069598;29;20257;-82
2022/03/25 23:42:23;;;;;;;50.60;26.87;;;9.30;99.90;;;;;;10045499;29;20233;-82
2022/03/25 23:47:45;;;;;;;34.57;20.17;;;9.30;99.90;;;;;;10028575;29;20247;-76
2022/03/25 23:53:08;;;;;;;29.47;17.90;;;9.30;99.90;;;;;;10028542;29;20213;-76
2022/03/25 23:58:30;;;;;;;32.87;19.40;;;9.30;99.90;;;;;;10045073;29;20241;-78
